2VA3 weather

Merlin Aerodrome
Amelia Court House, Virginia, United States

Public forecast

Using degrees Fahrenheit for public forecast. Weather courtesy of forecast.io.

METAR (pilot weather report)

Closest report is Crewe Municipal Airport, 13.7 nm (25.4 km) SW. Retrieved 2019/05/27 00:35 UTC (0 seconds ago):

KW81 270035Z AUTO 00000KT 10SM SCT080 24/24 A2996 RMK AO1 T02360236

TAF (pilot weather forecast)

Forecast is more than 12 hours old.

Closest forecast is Richmond International Airport, 28.5 nm (52.7 km) ENE. Retrieved 2019/05/26 00:22 UTC (1 day ago):

TAF KRIC 262320Z 2700/2724 VRB03KT P6SM SCT040 BKN120 FM270300 26004KT P6SM VCTS BKN050CB FM270600 VRB03KT P6SM BKN120 FM271800 36006KT P6SM SCT050